Time;durP1;ratioP1;P1;durP2;ratioP2;P2;SDS_P1;SDS_P2;PMS_P1;PMS_P2;Temp;Humidity;BMP_temperature;BMP_pressure;BME280_temperature;BME280_humidity;BME280_pressure;Samples;Min_cycle;Max_cycle;Signal;HPM_P1;HPM_P2
2022/04/03 00:01:28;;;;;;;;;16.25;12.50;;;;;7.62;39.34;101397.31;5034231;28;46277;-62
2022/04/03 00:03:54;;;;;;;;;18.50;14.25;;;;;7.58;39.67;101387.78;5035129;28;45806;-62
2022/04/03 00:06:20;;;;;;;;;23.25;20.00;;;;;7.53;39.70;101389.56;5039833;28;45411;-62
2022/04/03 00:08:45;;;;;;;;;16.00;16.00;;;;;7.57;39.29;101403.50;5055065;28;45418;-63
2022/04/03 00:11:11;;;;;;;;;13.75;13.75;;;;;7.51;39.76;101400.03;5054828;28;46061;-61
2022/04/03 00:13:37;;;;;;;;;21.50;17.25;;;;;7.53;39.47;101406.13;5036096;28;45456;-61
2022/04/03 00:16:05;;;;;;;;;16.50;15.00;;;;;7.43;39.55;101411.47;5034798;28;45409;-62
2022/04/03 00:18:32;;;;;;;;;19.00;18.00;;;;;7.45;40.18;101409.72;5015294;28;45540;-62
2022/04/03 00:20:58;;;;;;;;;15.75;14.00;;;;;7.45;40.30;101396.63;5029333;28;46164;-62
2022/04/03 00:23:23;;;;;;;;;22.25;17.00;;;;;7.44;39.59;101413.19;5018254;28;45979;-62
2022/04/03 00:25:52;;;;;;;;;16.25;14.75;;;;;7.45;40.48;101407.09;5015252;28;45459;-62
2022/04/03 00:28:18;;;;;;;;;17.00;17.00;;;;;7.43;40.34;101407.09;5015050;28;45515;-62
2022/04/03 00:30:44;;;;;;;;;16.50;16.50;;;;;7.43;40.26;101401.00;5015036;28;46258;-62
2022/04/03 00:33:11;;;;;;;;;14.75;13.75;;;;;7.43;39.98;101409.72;5028924;28;45554;-62
2022/04/03 00:35:36;;;;;;;;;16.25;15.75;;;;;7.43;40.12;101411.47;5038441;28;45446;-61
2022/04/03 00:38:01;;;;;;;;;16.50;16.50;;;;;7.41;40.52;101415.84;5038478;28;45523;-61
2022/04/03 00:40:27;;;;;;;;;16.50;16.50;;;;;7.40;39.94;101412.38;5037851;28;46198;-63
2022/04/03 00:42:52;;;;;;;;;16.25;16.25;;;;;7.38;40.60;101406.28;5026440;28;45644;-62
2022/04/03 00:45:19;;;;;;;;;16.00;16.00;;;;;7.34;40.05;101404.59;5018413;28;45428;-62
2022/04/03 00:47:47;;;;;;;;;17.25;12.25;;;;;7.33;40.45;101415.06;5023135;28;45332;-61
2022/04/03 00:50:12;;;;;;;;;18.25;15.75;;;;;7.30;40.13;101415.94;5036891;28;46260;-62
2022/04/03 00:52:38;;;;;;;;;13.75;12.25;;;;;7.27;40.41;101418.59;5028514;28;45507;-61
2022/04/03 00:55:04;;;;;;;;;15.50;15.50;;;;;7.26;40.55;101414.25;5018343;28;45347;-63
2022/04/03 00:57:29;;;;;;;;;10.25;9.50;;;;;7.28;40.60;101409.84;5018140;28;45690;-62
2022/04/03 00:59:56;;;;;;;;;15.25;15.25;;;;;7.22;40.41;101410.78;5021641;28;46048;-62
2022/04/03 01:02:21;;;;;;;;;19.25;16.25;;;;;7.21;40.88;101414.28;5019208;28;45440;-61
2022/04/03 01:04:47;;;;;;;;;16.50;16.50;;;;;7.17;40.85;101406.47;5018292;28;45353;-62
2022/04/03 01:07:13;;;;;;;;;11.50;11.00;;;;;7.17;40.77;101406.47;5018098;28;45500;-62
2022/04/03 01:09:38;;;;;;;;;18.75;17.50;;;;;7.10;42.10;101399.56;5021970;28;45526;-62
2022/04/03 01:12:05;;;;;;;;;16.75;15.75;;;;;7.06;41.11;101402.19;5033260;28;45497;-62
2022/04/03 01:14:36;;;;;;;;;16.00;15.75;;;;;6.95;41.60;101380.47;5017857;28;45515;-62
2022/04/03 01:17:02;;;;;;;;;16.25;16.25;;;;;7.04;41.58;101406.59;5017779;28;45555;-62
2022/04/03 01:19:28;;;;;;;;;10.25;8.00;;;;;7.04;41.36;101408.34;5017644;28;46227;-62
2022/04/03 01:21:54;;;;;;;;;12.25;12.25;;;;;7.04;41.77;101403.09;5024094;28;45574;-61
2022/04/03 01:24:21;;;;;;;;;14.75;14.75;;;;;7.07;41.79;101403.06;5037502;28;45364;-61
2022/04/03 01:26:48;;;;;;;;;14.00;14.00;;;;;7.10;41.50;101397.81;5036048;28;45454;-61
2022/04/03 01:29:15;;;;;;;;;14.75;13.00;;;;;7.12;41.54;101396.06;5037364;28;45533;-61
2022/04/03 01:31:41;;;;;;;;;12.00;12.00;;;;;7.17;41.40;101406.47;5035092;28;45914;-62
2022/04/03 01:34:07;;;;;;;;;13.25;12.75;;;;;7.18;41.37;101398.63;5028730;28;45529;-61
2022/04/03 01:36:32;;;;;;;;;14.50;14.50;;;;;7.20;41.89;101404.72;5032142;28;45698;-61
2022/04/03 01:38:57;;;;;;;;;14.25;12.50;;;;;7.22;41.19;101402.91;5035719;28;46592;-61
2022/04/03 01:41:23;;;;;;;;;23.75;21.50;;;;;7.21;41.49;101400.34;5037388;28;46150;-61
2022/04/03 01:43:48;;;;;;;;;14.00;12.00;;;;;7.18;41.36;101401.22;5035537;28;45497;-61
2022/04/03 01:46:13;;;;;;;;;15.25;15.25;;;;;7.08;41.85;101403.03;5027252;28;45530;-62
2022/04/03 01:48:39;;;;;;;;;14.50;14.50;;;;;7.02;42.15;101399.63;5034038;28;46121;-62
2022/04/03 01:51:04;;;;;;;;;15.00;15.00;;;;;6.99;41.72;101402.25;5017500;28;45399;-61
2022/04/03 01:53:30;;;;;;;;;15.25;13.50;;;;;6.98;42.05;101401.38;5017073;28;45405;-60
2022/04/03 01:56:04;;;;;;;;;17.00;17.00;;;;;6.99;42.44;101402.25;5017044;28;45412;-62
2022/04/03 01:58:30;;;;;;;;;16.75;16.25;;;;;6.99;42.04;101394.41;5026712;28;46407;-62
2022/04/03 02:00:56;;;;;;;;;14.50;13.25;;;;;7.02;42.06;101397.88;5018940;28;45499;-62
2022/04/03 02:03:22;;;;;;;;;16.00;16.00;;;;;6.99;42.29;101408.34;5019112;28;45489;-62
2022/04/03 02:05:48;;;;;;;;;13.00;13.00;;;;;7.00;42.51;101397.00;5036858;28;45661;-61
2022/04/03 02:08:14;;;;;;;;;15.25;15.00;;;;;6.91;42.34;101388.38;5027557;28;45391;-61
2022/04/03 02:10:39;;;;;;;;;15.50;15.50;;;;;7.02;42.38;101400.47;5020996;28;45518;-61
2022/04/03 02:13:05;;;;;;;;;15.50;14.50;;;;;7.05;42.64;101400.47;5017091;28;45554;-61
2022/04/03 02:15:31;;;;;;;;;14.00;14.00;;;;;7.02;42.48;101392.63;5035458;28;45462;-61
2022/04/03 02:17:56;;;;;;;;;16.00;16.00;;;;;7.10;42.15;101405.66;5036606;28;46045;-60
2022/04/03 02:20:22;;;;;;;;;15.50;11.75;;;;;7.06;42.09;101388.25;5035134;28;45487;-60
2022/04/03 02:22:47;;;;;;;;;14.50;12.00;;;;;7.07;42.38;101400.47;5036921;28;45530;-62
2022/04/03 02:25:13;;;;;;;;;15.50;14.25;;;;;7.09;42.23;101398.69;5036201;28;45442;-61
2022/04/03 02:27:40;;;;;;;;;10.25;9.25;;;;;7.09;42.62;101396.06;5028858;28;45570;-62
2022/04/03 02:30:09;;;;;;;;;14.00;13.50;;;;;7.10;42.37;101397.81;5035733;28;45442;-63
2022/04/03 02:32:36;;;;;;;;;13.75;13.75;;;;;7.06;42.92;101394.34;5036728;28;45374;-62
2022/04/03 02:35:02;;;;;;;;;11.75;11.75;;;;;7.10;42.77;101402.19;5022097;28;45406;-62
2022/04/03 02:37:27;;;;;;;;;15.25;14.00;;;;;7.11;42.21;101404.75;5016337;28;45442;-64
2022/04/03 02:39:52;;;;;;;;;14.00;14.00;;;;;7.07;42.32;101396.09;5016466;28;45408;-62
2022/04/03 02:42:18;;;;;;;;;14.25;13.00;;;;;7.12;42.53;101403.00;5016512;28;45679;-61
2022/04/03 02:44:43;;;;;;;;;17.25;15.50;;;;;7.13;42.66;101403.00;5027823;28;45471;-61
2022/04/03 02:47:08;;;;;;;;;16.00;13.75;;;;;7.09;42.44;101398.69;5029024;28;46009;-61
2022/04/03 02:49:34;;;;;;;;;15.75;15.00;;;;;7.15;42.43;101406.50;5016263;28;45463;-60
2022/04/03 02:51:59;;;;;;;;;15.00;15.00;;;;;7.10;42.69;101403.03;5017566;28;45569;-61
2022/04/03 02:54:24;;;;;;;;;15.25;12.50;;;;;7.10;42.62;101405.66;5024604;28;45525;-61
2022/04/03 02:56:50;;;;;;;;;18.25;15.00;;;;;7.04;43.10;101403.09;5035347;28;46073;-60
2022/04/03 02:59:16;;;;;;;;;12.75;12.75;;;;;6.98;42.98;101400.50;5027893;28;45420;-61
2022/04/03 03:01:41;;;;;;;;;12.25;12.25;;;;;6.97;42.71;101402.25;5016324;28;45554;-62
2022/04/03 03:04:06;;;;;;;;;7.00;7.00;;;;;7.04;42.67;101413.56;5021546;28;45435;-61
2022/04/03 03:06:32;;;;;;;;;15.25;15.25;;;;;7.05;42.83;101412.66;5035666;28;51067;-61
2022/04/03 03:08:57;;;;;;;;;11.50;11.50;;;;;7.04;43.25;101403.97;5035888;28;45447;-61
2022/04/03 03:11:23;;;;;;;;;14.00;13.75;;;;;7.03;43.29;101409.19;5034393;28;45538;-60
2022/04/03 03:13:48;;;;;;;;;13.00;12.00;;;;;7.04;42.81;101417.03;5032595;28;45320;-62
2022/04/03 03:16:13;;;;;;;;;15.00;15.00;;;;;7.02;43.17;101412.69;5015884;28;45990;-61
2022/04/03 03:18:39;;;;;;;;;16.00;15.25;;;;;6.99;43.09;101410.13;5015938;28;45429;-61
2022/04/03 03:21:04;;;;;;;;;16.00;15.00;;;;;6.96;43.11;101415.34;5015693;28;45630;-61
2022/04/03 03:23:29;;;;;;;;;17.25;16.00;;;;;6.91;43.45;101420.63;5016088;28;45469;-60
2022/04/03 03:25:55;;;;;;;;;13.75;10.50;;;;;6.89;43.80;101416.28;5014844;28;47413;-61
2022/04/03 03:28:21;;;;;;;;;15.50;14.00;;;;;6.84;43.78;101411.06;5026606;28;45447;-60
2022/04/03 03:30:46;;;;;;;;;16.50;16.50;;;;;6.88;43.52;101420.66;5034412;28;45446;-62
2022/04/03 03:33:11;;;;;;;;;17.50;15.25;;;;;6.87;43.65;101418.91;5035950;28;45427;-61
2022/04/03 03:35:37;;;;;;;;;13.25;11.50;;;;;6.90;43.56;101426.72;5017398;28;46320;-61
2022/04/03 03:38:03;;;;;;;;;16.75;16.75;;;;;6.91;43.80;101423.25;5029511;28;45536;-60
2022/04/03 03:40:28;;;;;;;;;11.25;11.25;;;;;6.92;43.50;101424.09;5035582;28;45427;-61
2022/04/03 03:42:54;;;;;;;;;16.50;11.50;;;;;6.93;43.82;101420.59;5035324;28;45612;-61
2022/04/03 03:45:19;;;;;;;;;16.50;12.50;;;;;6.96;43.66;101418.84;5020175;28;45483;-60
2022/04/03 03:47:48;;;;;;;;;17.00;15.00;;;;;6.96;43.30;101425.78;5015352;28;45440;-62
2022/04/03 03:50:14;;;;;;;;;14.75;14.50;;;;;6.93;43.72;101429.34;5031434;28;45510;-61
2022/04/03 03:52:41;;;;;;;;;16.50;14.25;;;;;6.93;43.48;101421.50;5035079;28;45533;-61
2022/04/03 03:55:08;;;;;;;;;12.50;11.00;;;;;6.86;43.78;101430.25;5030189;28;46176;-64
2022/04/03 03:57:33;;;;;;;;;11.00;11.00;;;;;6.87;43.68;101426.75;5033610;28;45599;-61
2022/04/03 03:59:58;;;;;;;;;11.00;11.00;;;;;6.87;43.86;101426.75;5035332;28;45532;-61
2022/04/03 04:02:24;;;;;;;;;14.75;12.75;;;;;6.87;44.13;101429.34;5026536;28;45641;-61
2022/04/03 04:04:49;;;;;;;;;11.00;11.00;;;;;6.88;44.03;101425.88;5025215;28;46333;-62
2022/04/03 04:07:14;;;;;;;;;15.00;13.25;;;;;6.81;43.64;101426.78;5035101;28;45424;-60
2022/04/03 04:09:41;;;;;;;;;16.00;16.00;;;;;6.74;43.90;101415.47;5038856;28;45363;-61
2022/04/03 04:12:08;;;;;;;;;1.50;1.50;;;;;6.70;43.84;101424.25;5037621;28;45385;-62
2022/04/03 04:14:33;;;;;;;;;10.25;10.25;;;;;6.77;44.10;101425.06;5030821;28;45568;-62
2022/04/03 04:16:58;;;;;;;;;12.75;12.75;;;;;6.80;43.85;101423.31;5019879;28;45529;-61
2022/04/03 04:19:24;;;;;;;;;11.25;11.00;;;;;6.82;43.57;101429.41;5018743;28;45420;-61
2022/04/03 04:21:51;;;;;;;;;10.75;10.75;;;;;6.85;44.02;101436.31;5018755;28;45645;-62
2022/04/03 04:24:16;;;;;;;;;13.00;13.00;;;;;6.84;43.70;101432.84;5017421;28;46761;-62
2022/04/03 04:26:41;;;;;;;;;11.75;11.75;;;;;6.86;43.52;101438.94;5026406;28;45368;-62
2022/04/03 04:29:07;;;;;;;;;11.75;11.75;;;;;6.87;43.44;101450.28;5038700;28;45449;-61
2022/04/03 04:31:33;;;;;;;;;8.25;8.25;;;;;6.85;43.26;101438.94;5032820;28;45454;-61
2022/04/03 04:33:58;;;;;;;;;13.75;13.75;;;;;6.81;44.03;101442.47;5035050;28;45538;-61
2022/04/03 04:36:24;;;;;;;;;16.75;14.75;;;;;6.84;43.84;101448.53;5027448;28;45534;-61
2022/04/03 04:38:49;;;;;;;;;10.75;10.75;;;;;6.85;42.92;101454.63;5038428;28;45461;-62
2022/04/03 04:41:15;;;;;;;;;11.00;11.00;;;;;6.74;43.29;101449.47;5038143;28;45479;-61
2022/04/03 04:43:40;;;;;;;;;11.75;10.25;;;;;6.73;43.44;101449.50;5036914;28;47088;-62
2022/04/03 04:46:05;;;;;;;;;11.25;11.25;;;;;6.70;43.93;101446.91;5037692;28;45479;-61
2022/04/03 04:48:32;;;;;;;;;11.50;10.50;;;;;6.74;43.82;101456.44;5038297;28;45444;-61
2022/04/03 04:50:57;;;;;;;;;12.00;11.25;;;;;6.74;43.63;101461.69;5038382;28;45597;-61
2022/04/03 04:53:23;;;;;;;;;10.75;10.75;;;;;6.70;44.02;101455.59;5037892;28;45571;-62
2022/04/03 04:55:49;;;;;;;;;9.00;9.00;;;;;6.69;43.94;101453.88;5037507;28;45383;-61
2022/04/03 04:58:14;;;;;;;;;14.75;12.00;;;;;6.69;43.60;101456.50;5037942;28;45566;-62
2022/04/03 05:00:39;;;;;;;;;12.00;11.00;;;;;6.66;43.93;101453.00;5038026;28;45418;-61
2022/04/03 05:03:05;;;;;;;;;14.00;12.00;;;;;6.64;43.75;101466.09;5037807;28;46141;-61
2022/04/03 05:05:32;;;;;;;;;11.75;10.75;;;;;6.55;44.17;101455.69;5036960;28;45427;-64
2022/04/03 05:07:58;;;;;;;;;15.00;11.00;;;;;6.52;43.83;101461.78;5037668;28;45378;-61
2022/04/03 05:10:25;;;;;;;;;11.75;10.50;;;;;6.51;43.95;101465.28;5037745;28;45437;-62
2022/04/03 05:12:52;;;;;;;;;10.75;9.25;;;;;6.46;44.14;101466.19;5037482;28;45401;-61
2022/04/03 05:15:18;;;;;;;;;17.25;14.25;;;;;6.39;44.34;101463.63;5030957;28;45575;-62
2022/04/03 05:17:45;;;;;;;;;13.25;12.25;;;;;6.30;44.71;101462.75;5029753;28;45471;-61
2022/04/03 05:20:12;;;;;;;;;14.00;14.00;;;;;6.27;44.72;101476.72;5037194;28;45432;-61
2022/04/03 05:22:38;;;;;;;;;12.50;10.50;;;;;6.13;45.12;101468.06;5033516;28;46194;-60
2022/04/03 05:25:04;;;;;;;;;11.50;10.25;;;;;6.13;44.93;101468.06;5032257;28;45596;-63
2022/04/03 05:27:29;;;;;;;;;12.25;10.75;;;;;6.14;45.29;101485.47;5031375;28;45492;-64
2022/04/03 05:29:55;;;;;;;;;10.25;10.25;;;;;6.16;44.63;101483.72;5036696;28;45454;-63
2022/04/03 05:32:28;;;;;;;;;16.50;13.25;;;;;6.14;44.79;101478.47;5029429;28;45488;-66
2022/04/03 05:34:55;;;;;;;;;10.75;10.75;;;;;6.17;44.90;101491.53;5034453;28;46292;-65
2022/04/03 05:37:21;;;;;;;;;11.00;10.00;;;;;6.08;44.50;101491.56;5030169;28;45598;-65
2022/04/03 05:39:47;;;;;;;;;12.75;10.50;;;;;6.05;44.50;101490.72;5022230;28;45313;-64
2022/04/03 05:42:13;;;;;;;;;12.00;11.00;;;;;6.06;44.90;101490.69;5035244;28;45387;-63
2022/04/03 05:44:39;;;;;;;;;12.25;12.25;;;;;6.12;44.96;101500.25;5036792;28;45472;-64
2022/04/03 05:47:05;;;;;;;;;13.00;13.00;;;;;6.14;44.58;101498.50;5036937;28;45463;-65
2022/04/03 05:49:31;;;;;;;;;11.00;11.00;;;;;6.11;44.81;101493.31;5036929;28;45482;-65
2022/04/03 05:51:56;;;;;;;;;10.75;10.75;;;;;6.12;44.61;101505.47;5035153;28;45470;-65
2022/04/03 05:54:21;;;;;;;;;17.50;13.75;;;;;6.06;44.84;101502.88;5035756;28;45438;-63
2022/04/03 05:56:47;;;;;;;;;13.00;11.00;;;;;6.07;44.59;101505.50;5036730;28;45473;-65
2022/04/03 05:59:12;;;;;;;;;14.25;13.00;;;;;6.05;44.89;101504.63;5036886;28;45693;-63
2022/04/03 06:01:38;;;;;;;;;15.00;12.00;;;;;6.05;45.02;101507.25;5036535;28;45470;-63
2022/04/03 06:04:04;;;;;;;;;13.00;13.00;;;;;6.05;44.42;101501.16;5036015;28;55117;-64
2022/04/03 06:06:29;;;;;;;;;14.25;13.25;;;;;6.02;44.58;101502.03;5036543;28;45376;-64
2022/04/03 06:08:54;;;;;;;;;13.00;10.00;;;;;5.92;44.33;101502.88;5036656;28;45614;-63
2022/04/03 06:11:20;;;;;;;;;12.00;10.50;;;;;5.94;44.57;101509.88;5036463;28;45936;-64
2022/04/03 06:13:45;;;;;;;;;14.25;10.50;;;;;5.91;45.18;101508.97;5036364;28;45498;-64
2022/04/03 06:16:10;;;;;;;;;17.25;16.25;;;;;5.91;44.86;101514.19;5036479;28;45459;-66
2022/04/03 06:18:36;;;;;;;;;12.00;11.75;;;;;5.89;44.34;101513.34;5036197;28;45387;-63
2022/04/03 06:21:01;;;;;;;;;14.25;14.25;;;;;5.76;44.63;101513.34;5036301;28;46373;-64
2022/04/03 06:23:26;;;;;;;;;14.00;11.50;;;;;5.83;44.51;101526.38;5036188;28;45462;-65
2022/04/03 06:25:54;;;;;;;;;10.75;10.75;;;;;5.83;44.27;101528.97;5036490;28;45933;-66
2022/04/03 06:28:20;;;;;;;;;16.00;15.75;;;;;5.80;44.18;101524.63;5036623;28;45332;-64
2022/04/03 06:30:46;;;;;;;;;11.75;11.75;;;;;5.87;44.37;101534.22;5034749;28;46151;-64
2022/04/03 06:33:12;;;;;;;;;11.00;11.00;;;;;5.93;44.08;101539.44;5034697;28;45365;-64
2022/04/03 06:35:38;;;;;;;;;11.50;10.75;;;;;5.91;44.26;101530.75;5035970;28;45474;-64
2022/04/03 06:38:03;;;;;;;;;10.00;10.00;;;;;5.89;43.89;101542.06;5036017;28;45468;-64
2022/04/03 06:40:29;;;;;;;;;13.75;12.50;;;;;5.81;43.80;101543.81;5035807;28;45656;-65
2022/04/03 06:42:54;;;;;;;;;12.50;12.50;;;;;5.85;44.33;101540.31;5035976;28;45368;-64
2022/04/03 06:45:20;;;;;;;;;13.00;10.00;;;;;5.91;43.96;101538.56;5036112;28;45368;-64
2022/04/03 06:47:46;;;;;;;;;12.75;12.75;;;;;5.95;43.76;101553.38;5035960;28;45561;-64
2022/04/03 06:50:13;;;;;;;;;10.00;10.00;;;;;6.00;43.74;101550.78;5035860;28;46199;-64
2022/04/03 06:52:38;;;;;;;;;11.50;11.00;;;;;5.98;43.90;101548.16;5035842;28;45446;-65
2022/04/03 06:55:04;;;;;;;;;13.75;13.75;;;;;5.99;43.68;101551.63;5035932;28;45418;-64
2022/04/03 06:57:30;;;;;;;;;14.75;10.25;;;;;6.05;44.09;101556.88;5035722;28;45686;-64
2022/04/03 06:59:56;;;;;;;;;13.75;13.75;;;;;6.11;43.58;101558.59;5035394;28;46602;-65
2022/04/03 07:02:21;;;;;;;;;13.75;13.75;;;;;6.16;43.70;101557.72;5035743;28;45465;-63
2022/04/03 07:04:46;;;;;;;;;11.25;11.25;;;;;6.20;43.55;101572.50;5035871;28;45466;-65
2022/04/03 07:07:20;;;;;;;;;11.25;11.25;;;;;6.18;43.67;101566.41;5035518;28;45633;-64
2022/04/03 07:09:45;;;;;;;;;10.75;10.75;;;;;6.21;43.46;101573.38;5035524;28;46073;-63
2022/04/03 07:12:11;;;;;;;;;12.25;10.00;;;;;6.23;43.30;101568.13;5035747;28;45507;-66
2022/04/03 07:14:37;;;;;;;;;13.75;11.75;;;;;6.25;43.33;101564.66;5034324;28;45420;-64
2022/04/03 07:17:03;;;;;;;;;14.25;14.00;;;;;6.29;42.87;101579.47;5035791;28;45398;-65
2022/04/03 07:19:28;;;;;;;;;14.25;12.00;;;;;6.31;42.92;101576.81;5035359;28;45396;-65
2022/04/03 07:21:53;;;;;;;;;13.50;11.00;;;;;6.31;42.85;101569.84;5035557;28;45380;-64
2022/04/03 07:24:19;;;;;;;;;11.00;10.00;;;;;6.33;42.89;101569.88;5035506;28;45440;-65
2022/04/03 07:26:44;;;;;;;;;12.25;12.25;;;;;6.27;43.30;101575.97;5033957;28;45446;-64
2022/04/03 07:29:09;;;;;;;;;11.50;11.50;;;;;6.35;42.71;101578.56;5035266;28;45533;-64
2022/04/03 07:31:35;;;;;;;;;9.75;9.75;;;;;6.37;42.71;101584.69;5035320;28;45420;-65
2022/04/03 07:34:00;;;;;;;;;11.00;9.75;;;;;6.40;42.47;101592.50;5035399;28;45476;-64
2022/04/03 07:36:26;;;;;;;;;12.25;12.25;;;;;6.35;42.21;101584.66;5035291;28;45391;-64
2022/04/03 07:38:52;;;;;;;;;9.75;9.75;;;;;6.37;42.39;101588.16;5035296;28;45980;-64
2022/04/03 07:41:19;;;;;;;;;12.50;12.00;;;;;6.32;42.67;101579.44;5035032;28;45539;-64
2022/04/03 07:43:45;;;;;;;;;11.50;11.00;;;;;6.37;42.58;101582.94;5033863;28;45486;-65
2022/04/03 07:46:15;;;;;;;;;11.00;10.00;;;;;6.41;42.09;101595.09;5035071;28;45501;-64
2022/04/03 07:48:40;;;;;;;;;14.25;11.50;;;;;6.35;42.23;101586.41;5034838;28;46174;-65
2022/04/03 07:51:05;;;;;;;;;10.75;10.00;;;;;6.43;42.04;101596.84;5034976;28;45386;-65
2022/04/03 07:53:31;;;;;;;;;10.00;10.00;;;;;6.39;41.96;101593.34;5035087;28;45467;-64
2022/04/03 07:55:56;;;;;;;;;11.00;11.00;;;;;6.46;42.14;101596.84;5034848;28;45395;-64
2022/04/03 07:58:22;;;;;;;;;15.25;11.00;;;;;6.48;42.08;101603.81;5034857;28;45351;-64
2022/04/03 08:00:47;;;;;;;;;9.50;9.50;;;;;6.50;41.70;101603.78;5034608;28;45402;-64
2022/04/03 08:03:13;;;;;;;;;14.25;14.25;;;;;6.54;41.84;101605.53;5034736;28;45397;-64
2022/04/03 08:05:38;;;;;;;;;9.75;9.75;;;;;6.47;41.64;101588.97;5034938;28;45404;-65
2022/04/03 08:08:04;;;;;;;;;13.00;11.75;;;;;6.57;41.54;101598.53;5034554;28;45605;-64
2022/04/03 08:10:29;;;;;;;;;13.75;13.75;;;;;6.58;41.48;101605.53;5034569;28;45507;-64
2022/04/03 08:12:54;;;;;;;;;14.50;14.00;;;;;6.65;41.88;101614.22;5034856;28;45935;-64
2022/04/03 08:15:21;;;;;;;;;11.00;10.50;;;;;6.68;41.35;101615.94;5034736;28;45528;-64
2022/04/03 08:17:46;;;;;;;;;10.25;7.00;;;;;6.59;40.79;101606.41;5034778;28;46096;-65
2022/04/03 08:20:16;;;;;;;;;10.75;7.50;;;;;6.60;41.30;101619.44;5032936;28;45562;-64
2022/04/03 08:22:42;;;;;;;;;9.75;9.75;;;;;6.63;41.24;101603.75;5034687;28;45383;-64
2022/04/03 08:25:08;;;;;;;;;10.75;10.75;;;;;6.69;40.74;101602.88;5033458;28;45470;-64
2022/04/03 08:27:42;;;;;;;;;10.25;10.00;;;;;6.71;40.37;101614.19;5034056;28;45423;-65
2022/04/03 08:30:10;;;;;;;;;11.00;11.00;;;;;6.77;40.40;101614.19;5034348;28;45553;-64
2022/04/03 08:32:35;;;;;;;;;10.50;10.00;;;;;6.81;40.15;101618.50;5034494;28;45503;-64
2022/04/03 08:35:00;;;;;;;;;10.00;10.00;;;;;6.83;39.50;101615.91;5034215;28;45549;-63
2022/04/03 08:37:28;;;;;;;;;6.00;6.00;;;;;6.84;40.12;101626.34;5034329;28;46213;-63
2022/04/03 08:39:53;;;;;;;;;7.75;7.75;;;;;6.85;39.13;101615.03;5034533;28;45509;-63
2022/04/03 08:42:18;;;;;;;;;8.00;7.00;;;;;6.81;39.68;101615.03;5034601;28;45455;-64
2022/04/03 08:44:44;;;;;;;;;9.25;7.00;;;;;6.83;40.37;101614.16;5034371;28;45640;-64
2022/04/03 08:47:15;;;;;;;;;6.00;6.00;;;;;6.92;40.11;101621.09;5034226;28;46107;-64
2022/04/03 08:49:41;;;;;;;;;8.50;8.50;;;;;6.95;39.38;101613.22;5034083;28;45450;-65
2022/04/03 08:52:09;;;;;;;;;7.00;7.00;;;;;6.98;39.49;101615.81;5033952;28;45596;-64
2022/04/03 08:54:37;;;;;;;;;5.00;5.00;;;;;7.03;39.67;101619.28;5035932;28;45430;-65
2022/04/03 08:57:02;;;;;;;;;7.00;7.00;;;;;7.00;39.50;101603.63;5037388;28;45406;-65
2022/04/03 08:59:27;;;;;;;;;11.00;8.25;;;;;7.11;38.73;101623.63;5035453;28;45492;-65
2022/04/03 09:01:53;;;;;;;;;8.75;6.00;;;;;7.15;39.07;101613.16;5037689;28;45391;-64
2022/04/03 09:04:20;;;;;;;;;9.75;9.75;;;;;7.17;38.51;101621.84;5036131;28;45584;-64
2022/04/03 09:06:57;;;;;;;;;6.25;5.50;;;;;7.16;37.94;101614.88;5037139;28;45551;-65
2022/04/03 09:09:24;;;;;;;;;6.00;6.00;;;;;7.22;38.27;101619.22;5036840;28;45509;-64
2022/04/03 09:12:09;;;;;;;;;8.25;8.25;;;;;7.25;38.48;101621.81;5037434;28;45470;-64
2022/04/03 09:14:43;;;;;;;;;11.75;8.25;;;;;7.27;37.57;101607.84;5035731;28;45561;-64
2022/04/03 09:17:08;;;;;;;;;7.25;7.25;;;;;7.15;37.65;101620.13;5037219;28;45556;-65
2022/04/03 09:19:35;;;;;;;;;10.00;8.00;;;;;7.07;38.44;101610.56;5037053;28;45509;-64
2022/04/03 09:22:01;;;;;;;;;12.75;11.75;;;;;7.15;38.48;101610.53;5035871;28;45395;-65
2022/04/03 09:24:27;;;;;;;;;10.75;10.25;;;;;7.14;38.36;101611.41;5037041;28;45479;-65
2022/04/03 09:27:00;;;;;;;;;8.25;6.75;;;;;7.22;37.47;101622.69;5036776;28;46186;-64
2022/04/03 09:29:26;;;;;;;;;6.75;6.00;;;;;7.25;36.91;101621.81;5036753;28;45414;-64
2022/04/03 09:31:58;;;;;;;;;6.25;6.25;;;;;7.36;35.35;101606.94;5036930;28;45375;-65
2022/04/03 09:34:26;;;;;;;;;6.00;6.00;;;;;7.55;36.30;101610.31;5037045;28;45402;-66
2022/04/03 09:37:09;;;;;;;;;5.25;5.25;;;;;7.77;34.84;101616.25;5036768;28;46611;-67
2022/04/03 09:39:34;;;;;;;;;5.50;5.50;;;;;7.78;33.72;101619.75;5036872;28;45480;-65
2022/04/03 09:42:11;;;;;;;;;6.50;6.50;;;;;7.70;33.03;101614.56;5035375;28;45406;-64
2022/04/03 09:44:38;;;;;;;;;2.50;2.50;;;;;7.67;34.97;101607.59;5035648;28;45540;-64
2022/04/03 09:47:10;;;;;;;;;3.75;3.75;;;;;7.74;34.90;101604.06;5036649;28;45417;-65
2022/04/03 09:49:36;;;;;;;;;5.00;3.00;;;;;7.77;34.81;101604.94;5036574;28;45402;-65
2022/04/03 09:52:01;;;;;;;;;3.50;3.50;;;;;7.79;34.45;101605.75;5036664;28;47152;-64
2022/04/03 09:54:26;;;;;;;;;2.00;2.00;;;;;7.85;33.70;101608.34;5037113;28;45520;-65
2022/04/03 09:56:52;;;;;;;;;5.00;5.00;;;;;7.76;31.92;101598.78;5036516;28;46166;-64
2022/04/03 09:59:17;;;;;;;;;2.00;2.00;;;;;7.78;33.39;101602.28;5036646;28;45367;-64
2022/04/03 10:01:43;;;;;;;;;1.75;1.00;;;;;7.78;32.37;101619.75;5036640;28;45423;-64
2022/04/03 10:04:11;;;;;;;;;0.75;0.75;;;;;7.76;32.23;101606.66;5036820;28;45366;-65
2022/04/03 10:06:40;;;;;;;;;1.00;1.00;;;;;7.79;32.42;101608.38;5034920;28;45465;-65
2022/04/03 10:09:11;;;;;;;;;1.75;1.75;;;;;7.79;31.06;101605.75;5034918;28;45480;-64
2022/04/03 10:11:38;;;;;;;;;2.00;2.00;;;;;7.74;31.13;101596.22;5036477;28;45516;-64
2022/04/03 10:14:03;;;;;;;;;3.00;2.00;;;;;7.70;30.55;101597.09;5035024;28;45626;-65
2022/04/03 10:16:29;;;;;;;;;2.75;2.75;;;;;7.80;31.75;101600.53;5035989;28;45480;-65
2022/04/03 10:18:54;;;;;;;;;2.00;2.00;;;;;8.01;30.40;101609.09;5036366;28;45442;-65
2022/04/03 10:21:29;;;;;;;;;1.25;1.25;;;;;8.26;30.24;101604.50;5036060;28;45451;-65
2022/04/03 10:24:03;;;;;;;;;1.25;1.00;;;;;8.54;30.94;101595.50;5036337;28;45431;-64
2022/04/03 10:26:32;;;;;;;;;1.50;1.50;;;;;8.80;30.85;101587.31;5036020;28;45454;-65
2022/04/03 10:28:58;;;;;;;;;2.25;1.25;;;;;9.02;30.92;101594.94;5035846;28;45448;-65
2022/04/03 10:31:24;;;;;;;;;2.00;2.00;;;;;9.13;30.57;101602.66;5036270;28;45471;-64
2022/04/03 10:33:51;;;;;;;;;2.00;2.00;;;;;9.03;30.44;101594.91;5034797;28;45377;-65
2022/04/03 10:36:24;;;;;;;;;1.50;1.50;;;;;8.96;30.98;101589.75;5036080;28;46724;-65
2022/04/03 10:38:58;;;;;;;;;1.50;1.50;;;;;8.85;30.77;101603.88;5035962;28;45571;-64
2022/04/03 10:41:39;;;;;;;;;2.50;2.50;;;;;8.69;31.08;101593.59;5035852;28;45388;-64
2022/04/03 10:44:25;;;;;;;;;7.00;3.00;;;;;8.68;31.14;101599.69;5035933;28;45427;-64
2022/04/03 10:47:03;;;;;;;;;3.00;3.00;;;;;8.54;29.89;101584.13;5035774;28;45364;-63
2022/04/03 10:49:29;;;;;;;;;5.75;2.25;;;;;8.39;30.73;101590.41;5035705;28;45440;-65
2022/04/03 10:52:04;;;;;;;;;6.00;3.25;;;;;8.45;31.28;101592.09;5035699;28;45384;-65
2022/04/03 10:54:31;;;;;;;;;2.00;2.00;;;;;8.43;31.52;101589.50;5036089;28;45496;-64
2022/04/03 10:57:31;;;;;;;;;3.50;2.00;;;;;8.47;31.81;101588.59;5034248;28;46145;-64
2022/04/03 11:00:33;;;;;;;;;2.75;2.75;;;;;8.43;31.49;101579.00;5035336;28;45368;-65
2022/04/03 11:02:58;;;;;;;;;4.75;4.75;;;;;8.39;30.39;101591.28;5028356;28;45565;-64
2022/04/03 11:05:26;;;;;;;;;4.25;3.00;;;;;8.39;31.98;101591.28;5035641;28;45540;-64
2022/04/03 11:08:00;;;;;;;;;3.00;3.00;;;;;8.45;32.09;101581.63;5035493;28;46563;-65
2022/04/03 11:10:57;;;;;;;;;2.25;2.00;;;;;8.49;31.12;101571.09;5035368;28;45380;-64
2022/04/03 11:13:31;;;;;;;;;5.75;3.00;;;;;8.46;31.90;101570.25;5035742;28;45505;-64
2022/04/03 11:16:01;;;;;;;;;4.25;4.25;;;;;8.46;31.79;101565.84;5035359;28;45482;-65
2022/04/03 11:18:33;;;;;;;;;5.00;3.00;;;;;8.47;31.00;101565.00;5035025;28;45492;-64
2022/04/03 11:21:12;;;;;;;;;14.25;13.00;;;;;8.52;32.05;101560.56;5035168;28;45494;-64